Time;durP1;ratioP1;P1;durP2;ratioP2;P2;SDS_P1;SDS_P2;PMS_P1;PMS_P2;Temp;Humidity;BMP_temperature;BMP_pressure;BME280_temperature;BME280_humidity;BME280_pressure;Samples;Min_cycle;Max_cycle;Signal;HPM_P1;HPM_P2
2023/03/31 00:02:23;;;;;;;1999.90;999.90;;;;;;;8.33;100.00;93839.66;5083741;28;20165;-58
2023/03/31 00:04:51;;;;;;;1999.90;999.90;;;;;;;8.34;100.00;93838.47;5083852;28;20192;-58
2023/03/31 00:07:20;;;;;;;1999.90;999.90;;;;;;;8.35;100.00;93829.13;5084276;28;20176;-58
2023/03/31 00:09:53;;;;;;;1999.90;999.90;;;;;;;8.39;100.00;93827.09;5084339;28;20219;-58
2023/03/31 00:12:20;;;;;;;1999.90;999.90;;;;;;;8.44;100.00;93836.66;5084166;28;20169;-58
2023/03/31 00:14:45;;;;;;;1999.90;999.90;;;;;;;8.46;100.00;93826.91;5084230;28;20179;-58
2023/03/31 00:17:11;;;;;;;1999.90;999.90;;;;;;;8.50;100.00;93822.13;5085062;28;20260;-59
2023/03/31 00:19:38;;;;;;;1999.90;999.90;;;;;;;8.50;100.00;93827.59;5087850;28;20165;-58
2023/03/31 00:22:04;;;;;;;1999.90;999.90;;;;;;;8.49;100.00;93826.03;5087753;28;20168;-58
2023/03/31 00:24:31;;;;;;;1999.90;999.90;;;;;;;8.48;100.00;93826.47;5087931;28;20165;-58
2023/03/31 00:26:58;;;;;;;1999.90;999.90;;;;;;;8.45;100.00;93832.78;5087847;28;20204;-58
2023/03/31 00:29:24;;;;;;;1999.90;999.90;;;;;;;8.39;100.00;93827.09;5087348;28;20220;-58
2023/03/31 00:31:50;;;;;;;1999.90;999.90;;;;;;;8.39;100.00;93820.88;5088384;28;20172;-58
2023/03/31 00:34:15;;;;;;;1999.90;999.90;;;;;;;8.37;100.00;93826.75;5087427;28;20256;-58
2023/03/31 00:36:46;;;;;;;1999.90;999.90;;;;;;;8.38;100.00;93822.81;5088121;28;20174;-58
2023/03/31 00:39:14;;;;;;;1999.90;999.90;;;;;;;8.38;100.00;93822.06;5087467;28;20188;-60
2023/03/31 00:41:40;;;;;;;1999.90;999.90;;;;;;;8.33;100.00;93812.47;5087901;28;20165;-58
2023/03/31 00:44:13;;;;;;;1999.90;999.90;;;;;;;8.35;100.00;93810.09;5087990;28;20165;-58
2023/03/31 00:46:55;;;;;;;1999.90;999.90;;;;;;;8.40;100.00;93812.28;5087833;28;20161;-58
2023/03/31 00:49:33;;;;;;;1999.90;999.90;;;;;;;8.19;100.00;93793.00;5087277;28;20166;-58
2023/03/31 00:52:22;;;;;;;1999.90;999.90;;;;;;;8.15;100.00;93784.16;5087968;28;20173;-59
2023/03/31 00:54:53;;;;;;;1999.90;999.90;;;;;;;8.16;100.00;93772.84;5087126;28;20189;-59
2023/03/31 00:57:20;;;;;;;1999.90;999.90;;;;;;;8.17;100.00;93766.25;5087505;28;20185;-58
2023/03/31 00:59:51;;;;;;;1999.90;999.90;;;;;;;8.15;100.00;93763.19;5087155;28;20192;-58
2023/03/31 01:02:19;;;;;;;1999.90;999.90;;;;;;;8.18;100.00;93756.13;5087236;28;20164;-59
2023/03/31 01:04:54;;;;;;;1999.90;999.90;;;;;;;8.23;100.00;93748.25;5086899;28;20172;-58
2023/03/31 01:07:25;;;;;;;1999.90;999.90;;;;;;;8.23;100.00;93742.06;5087403;28;20168;-59
2023/03/31 01:09:55;;;;;;;1999.90;999.90;;;;;;;8.26;100.00;93736.50;5087178;28;20165;-58
2023/03/31 01:12:21;;;;;;;1999.90;999.90;;;;;;;8.28;100.00;93728.69;5087390;28;20153;-58
2023/03/31 01:14:49;;;;;;;1999.90;999.90;;;;;;;8.32;100.00;93721.22;5086508;28;20172;-58
2023/03/31 01:17:17;;;;;;;1999.90;999.90;;;;;;;8.34;100.00;93709.91;5087048;28;20185;-60
2023/03/31 01:20:11;;;;;;;1999.90;999.90;;;;;;;8.35;100.00;93704.03;5086774;28;20172;-58
2023/03/31 01:22:58;;;;;;;1999.90;999.90;;;;;;;8.32;100.00;93704.13;5087190;28;20236;-58
2023/03/31 01:26:06;;;;;;;1999.90;999.90;;;;;;;8.31;100.00;93699.88;5087057;28;20165;-58
2023/03/31 01:28:56;;;;;;;1999.90;999.90;;;;;;;8.31;100.00;93683.56;5085148;28;20185;-58
2023/03/31 01:31:36;;;;;;;1999.90;999.90;;;;;;;8.32;100.00;93691.31;5086960;28;20250;-58
2023/03/31 01:34:32;;;;;;;1999.90;999.90;;;;;;;8.32;100.00;93685.84;5086966;28;20173;-58
2023/03/31 01:37:28;;;;;;;1999.90;999.90;;;;;;;8.32;100.00;93674.22;5086537;28;20200;-58
2023/03/31 01:39:56;;;;;;;1999.90;999.90;;;;;;;8.22;100.00;93662.44;5086548;28;20244;-57
2023/03/31 01:42:34;;;;;;;1999.90;999.90;;;;;;;8.17;100.00;93668.38;5086181;28;20180;-58
2023/03/31 01:45:25;;;;;;;1999.90;999.90;;;;;;;8.09;100.00;93677.16;5086713;28;20165;-59
2023/03/31 01:47:57;;;;;;;1999.90;999.90;;;;;;;8.11;100.00;93672.03;5086676;28;20193;-59
2023/03/31 01:50:29;;;;;;;1999.90;999.90;;;;;;;8.06;100.00;93662.47;5086047;28;20169;-57
2023/03/31 01:53:15;;;;;;;1999.90;999.90;;;;;;;8.06;100.00;93651.59;5086633;28;20389;-57
2023/03/31 01:56:04;;;;;;;1999.90;999.90;;;;;;;8.11;100.00;93642.91;5055453;28;20179;-58
2023/03/31 01:58:37;;;;;;;1999.90;999.90;;;;;;;8.13;100.00;93640.53;5077883;28;20209;-59
2023/03/31 02:01:17;;;;;;;1999.90;999.90;;;;;;;8.17;100.00;93635.75;5086500;28;20358;-58
2023/03/31 02:04:04;;;;;;;1999.90;999.90;;;;;;;8.22;100.00;93621.66;5086426;28;20178;-58
2023/03/31 02:06:35;;;;;;;1999.90;999.90;;;;;;;8.26;100.00;93616.88;5086619;28;20169;-58
2023/03/31 02:09:07;;;;;;;1999.90;999.90;;;;;;;8.25;100.00;93620.78;5086073;28;20190;-58
2023/03/31 02:11:34;;;;;;;1999.90;999.90;;;;;;;8.30;100.00;93616.78;5086473;28;20174;-59
2023/03/31 02:14:03;;;;;;;1999.90;999.90;;;;;;;8.26;100.00;93616.88;5086051;28;20184;-59
2023/03/31 02:16:34;;;;;;;1999.90;999.90;;;;;;;8.29;100.00;93637.78;5086108;28;20173;-59
2023/03/31 02:19:04;;;;;;;1999.90;999.90;;;;;;;8.32;100.00;93634.19;5086005;28;20253;-61
2023/03/31 02:21:37;;;;;;;1999.90;999.90;;;;;;;8.32;100.00;93639.63;5085547;28;20227;-59
2023/03/31 02:24:11;;;;;;;1999.90;999.90;;;;;;;8.39;100.00;93653.03;5085681;28;20169;-59
2023/03/31 02:26:43;;;;;;;1999.90;999.90;;;;;;;8.45;100.00;93656.72;5085958;28;20185;-59
2023/03/31 02:29:09;;;;;;;1999.90;999.90;;;;;;;8.46;100.00;93680.03;5085560;28;20214;-59
2023/03/31 02:31:55;;;;;;;1999.90;999.90;;;;;;;8.50;100.00;93702.47;5085815;28;20266;-59
2023/03/31 02:34:20;;;;;;;1999.90;999.90;;;;;;;8.54;100.00;93741.19;5085448;28;20188;-58
2023/03/31 02:36:47;;;;;;;1999.90;999.90;;;;;;;8.59;100.00;93767.88;5085674;28;20214;-59
2023/03/31 02:39:18;;;;;;;1999.90;999.90;;;;;;;8.60;100.00;93802.03;5085151;28;20244;-59
2023/03/31 02:41:44;;;;;;;1999.90;999.90;;;;;;;8.65;100.00;93828.75;5085290;28;20174;-59
2023/03/31 02:44:10;;;;;;;1999.90;999.90;;;;;;;8.68;100.00;93871.41;5085538;28;20351;-59
2023/03/31 02:46:36;;;;;;;1999.90;999.90;;;;;;;8.73;100.00;93900.06;5084988;28;20169;-59
2023/03/31 02:49:05;;;;;;;1999.90;999.90;;;;;;;8.77;100.00;93944.25;5085194;28;20173;-58
2023/03/31 02:51:54;;;;;;;1999.90;999.90;;;;;;;8.80;100.00;93974.13;5084848;28;20173;-59
2023/03/31 02:54:42;;;;;;;1999.90;999.90;;;;;;;8.90;100.00;94049.34;5085038;28;20198;-59
2023/03/31 02:57:31;;;;;;;1999.90;999.90;;;;;;;8.95;100.00;94091.59;5084992;28;20192;-59
2023/03/31 03:00:41;;;;;;;1999.90;999.90;;;;;;;8.91;100.00;94107.25;5084738;28;20169;-58
2023/03/31 03:03:18;;;;;;;1999.90;999.90;;;;;;;8.96;100.00;94128.53;5027481;28;20178;-58
2023/03/31 03:06:04;;;;;;;1999.90;999.90;;;;;;;8.96;100.00;94125.81;5027375;28;20209;-58
2023/03/31 03:08:54;;;;;;;1999.90;999.90;;;;;;;8.96;100.00;94118.41;5065091;28;20185;-58
2023/03/31 03:11:30;;;;;;;1999.90;999.90;;;;;;;8.98;100.00;94129.63;5084491;28;20169;-58
2023/03/31 03:14:25;;;;;;;1999.90;999.90;;;;;;;8.97;100.00;94114.50;5085063;28;20192;-59
2023/03/31 03:17:01;;;;;;;1999.90;999.90;;;;;;;8.98;100.00;94105.13;5084811;28;20161;-59
2023/03/31 03:19:26;;;;;;;1999.90;999.90;;;;;;;8.99;100.00;94093.03;5084903;28;20199;-60
2023/03/31 03:21:51;;;;;;;1999.90;999.90;;;;;;;8.98;100.00;94079.84;5084846;28;20169;-59
2023/03/31 03:24:17;;;;;;;1999.90;999.90;;;;;;;8.96;100.00;94050.34;5084872;28;20173;-59
2023/03/31 03:26:46;;;;;;;1999.90;999.90;;;;;;;8.95;100.00;94018.88;5084493;28;20173;-59
2023/03/31 03:29:13;;;;;;;1999.90;999.90;;;;;;;8.94;100.00;93992.84;5084006;28;20225;-59
2023/03/31 03:31:40;;;;;;;1999.90;999.90;;;;;;;8.92;100.00;93965.25;5084964;28;20170;-59
2023/03/31 03:34:05;;;;;;;1999.90;999.90;;;;;;;8.88;100.00;93948.25;5084445;28;20215;-58
2023/03/31 03:36:31;;;;;;;1999.90;999.90;;;;;;;8.85;100.00;93918.44;5084670;28;20366;-59
2023/03/31 03:38:57;;;;;;;1999.90;999.90;;;;;;;8.84;100.00;93889.66;5084015;28;20236;-58
2023/03/31 03:41:22;;;;;;;1999.90;999.90;;;;;;;8.81;100.00;93857.84;5083992;28;20206;-58
2023/03/31 03:43:48;;;;;;;1999.90;999.90;;;;;;;8.81;100.00;93825.97;5084555;28;20169;-58
2023/03/31 03:46:13;;;;;;;1999.90;999.90;;;;;;;8.81;100.00;93776.97;5084497;28;20210;-58
2023/03/31 03:48:38;;;;;;;1999.90;999.90;;;;;;;8.81;100.00;93744.31;5083884;28;20177;-56
2023/03/31 03:51:05;;;;;;;1999.90;999.90;;;;;;;8.80;100.00;93704.69;5083778;28;20169;-58
2023/03/31 03:53:30;;;;;;;1999.90;999.90;;;;;;;8.77;100.00;93661.25;5084312;28;20177;-58
2023/03/31 03:55:58;;;;;;;1999.90;999.90;;;;;;;8.76;100.00;93622.41;5084057;28;20457;-57
2023/03/31 03:58:23;;;;;;;1999.90;999.90;;;;;;;8.74;100.00;93629.47;5083925;28;20200;-55
2023/03/31 04:00:49;;;;;;;1999.90;999.90;;;;;;;8.77;100.00;93568.72;5083818;28;20175;-55
2023/03/31 04:03:15;;;;;;;1999.90;999.90;;;;;;;8.78;100.00;93521.28;5083869;28;20173;-55
2023/03/31 04:05:41;;;;;;;1999.90;999.90;;;;;;;8.78;100.00;93489.38;5084223;28;20165;-56
2023/03/31 04:08:07;;;;;;;1999.90;999.90;;;;;;;8.78;100.00;93437.66;5084288;28;20171;-55
2023/03/31 04:10:33;;;;;;;1999.90;999.90;;;;;;;8.78;100.00;93407.72;5083745;28;20175;-56
2023/03/31 04:12:58;;;;;;;1999.90;999.90;;;;;;;8.79;100.00;93381.28;5084192;28;20192;-56
2023/03/31 04:15:26;;;;;;;1999.90;999.90;;;;;;;8.78;100.00;93361.47;5083583;28;20181;-54
2023/03/31 04:17:53;;;;;;;1999.90;999.90;;;;;;;8.75;100.00;93326.97;5084387;28;20207;-55
2023/03/31 04:20:20;;;;;;;1999.90;999.90;;;;;;;8.71;100.00;93307.28;5084063;28;20173;-55
2023/03/31 04:22:49;;;;;;;1999.90;999.90;;;;;;;8.70;100.00;93303.06;5084158;28;20244;-56
2023/03/31 04:25:15;;;;;;;1999.90;999.90;;;;;;;8.70;100.00;93284.03;5084043;28;20169;-55
2023/03/31 04:27:55;;;;;;;1999.90;999.90;;;;;;;8.71;100.00;93265.75;5083527;28;20172;-53
2023/03/31 04:30:29;;;;;;;1999.90;999.90;;;;;;;8.71;100.00;93244.72;5083467;28;20209;-55
2023/03/31 04:32:57;;;;;;;1999.90;999.90;;;;;;;8.71;100.00;93239.28;5084049;28;20164;-55
2023/03/31 04:35:24;;;;;;;1999.90;999.90;;;;;;;8.73;100.00;93215.13;5083406;28;20172;-52
2023/03/31 04:37:57;;;;;;;1999.90;999.90;;;;;;;8.75;100.00;93206.50;5083409;28;20216;-55
2023/03/31 04:40:24;;;;;;;1999.90;999.90;;;;;;;8.76;100.00;93195.19;5083813;28;20162;-56
2023/03/31 04:42:50;;;;;;;1999.90;999.90;;;;;;;8.76;100.00;93178.84;5083905;28;20165;-55
2023/03/31 04:45:16;;;;;;;1999.90;999.90;;;;;;;8.74;100.00;93170.38;5083275;28;20172;-55
2023/03/31 04:47:42;;;;;;;1999.90;999.90;;;;;;;8.70;100.00;93167.03;5083274;28;20236;-55
2023/03/31 04:50:09;;;;;;;1999.90;999.90;;;;;;;8.62;100.00;93184.81;5083807;28;20165;-53
2023/03/31 04:52:34;;;;;;;1999.90;999.90;;;;;;;8.51;100.00;93358.53;5083264;28;20176;-56
2023/03/31 04:55:00;;;;;;;1999.90;999.90;;;;;;;8.46;100.00;93352.88;5083263;28;20188;-53
2023/03/31 04:57:25;;;;;;;1999.90;999.90;;;;;;;8.39;100.00;93342.25;5083066;28;20195;-53
2023/03/31 04:59:50;;;;;;;1999.90;999.90;;;;;;;8.31;100.00;93328.09;5083236;28;20165;-51
2023/03/31 05:02:22;;;;;;;1999.90;999.90;;;;;;;8.31;100.00;93295.47;5083774;28;20198;-55
2023/03/31 05:04:48;;;;;;;1999.90;999.90;;;;;;;8.28;100.00;93280.06;5087567;28;20242;-57
2023/03/31 05:07:13;;;;;;;1999.90;999.90;;;;;;;8.26;100.00;93257.22;5087375;28;20173;-54
2023/03/31 05:09:38;;;;;;;1999.90;999.90;;;;;;;8.23;100.00;93241.81;5086765;28;20173;-55
2023/03/31 05:12:04;;;;;;;1999.90;999.90;;;;;;;8.20;100.00;93220.91;5086709;28;20243;-55
2023/03/31 05:14:29;;;;;;;1999.90;999.90;;;;;;;8.22;100.00;93216.56;5087428;28;20207;-55
2023/03/31 05:16:56;;;;;;;1999.90;999.90;;;;;;;8.23;100.00;93193.59;5086580;28;20230;-55
2023/03/31 05:19:22;;;;;;;1999.90;999.90;;;;;;;8.25;100.00;93199.38;5086622;28;20169;-54
2023/03/31 05:21:47;;;;;;;1999.90;999.90;;;;;;;8.25;100.00;93223.06;5086326;28;20238;-56
2023/03/31 05:24:13;;;;;;;1999.90;999.90;;;;;;;8.27;100.00;93223.41;5086672;28;20173;-57
2023/03/31 05:26:39;;;;;;;1999.90;999.90;;;;;;;8.25;100.00;93188.50;5086747;28;20209;-57
2023/03/31 05:29:05;;;;;;;1999.90;999.90;;;;;;;8.21;100.00;93185.16;5086594;28;20217;-57
2023/03/31 05:31:31;;;;;;;1999.90;999.90;;;;;;;8.21;100.00;93163.41;5086774;28;20230;-54
2023/03/31 05:33:56;;;;;;;1999.90;999.90;;;;;;;8.23;100.00;93154.81;5086305;28;20249;-57
2023/03/31 05:36:22;;;;;;;1999.90;999.90;;;;;;;8.25;100.00;93136.84;5086286;28;20233;-57
2023/03/31 05:38:48;;;;;;;1999.90;999.90;;;;;;;8.27;100.00;93129.00;5086059;28;20250;-58
2023/03/31 05:41:15;;;;;;;1999.90;999.90;;;;;;;8.26;100.00;93110.41;5086249;28;20188;-58
2023/03/31 05:43:42;;;;;;;1999.90;999.90;;;;;;;8.29;100.00;93000.78;5086887;28;20478;-57
2023/03/31 05:46:07;;;;;;;1999.90;999.90;;;;;;;8.33;100.00;92996.72;5086645;28;20165;-58
2023/03/31 05:48:33;;;;;;;1999.90;999.90;;;;;;;8.39;100.00;92983.28;5086028;28;20230;-58
2023/03/31 05:50:59;;;;;;;1999.90;999.90;;;;;;;8.44;100.00;92964.44;5086022;28;20173;-58
2023/03/31 05:53:25;;;;;;;1999.90;999.90;;;;;;;8.51;100.00;92952.50;5085897;28;20165;-57
2023/03/31 05:56:00;;;;;;;1999.90;999.90;;;;;;;8.57;100.00;92946.03;5086413;28;20207;-56
2023/03/31 05:58:26;;;;;;;1999.90;999.90;;;;;;;8.62;100.00;92929.13;5086175;28;20211;-57
2023/03/31 06:01:07;;;;;;;1999.90;999.90;;;;;;;8.61;100.00;92886.81;5086048;28;20184;-58
2023/03/31 06:03:34;;;;;;;1999.90;999.90;;;;;;;8.63;100.00;92851.75;5086518;28;20224;-58
2023/03/31 06:06:00;;;;;;;1999.90;999.90;;;;;;;8.66;100.00;92850.84;5085923;28;20165;-57
2023/03/31 06:08:27;;;;;;;1999.90;999.90;;;;;;;8.77;100.00;92834.06;5086103;28;20223;-56
2023/03/31 06:10:52;;;;;;;1999.90;999.90;;;;;;;8.97;100.00;92818.78;5085653;28;20169;-58
2023/03/31 06:13:18;;;;;;;1999.90;999.90;;;;;;;9.09;100.00;92823.31;5085738;28;20169;-58
2023/03/31 06:15:52;;;;;;;1999.90;999.90;;;;;;;9.32;100.00;92808.25;5084528;28;20260;-58
2023/03/31 06:18:17;;;;;;;1999.90;999.90;;;;;;;9.41;100.00;92798.13;5085814;28;20197;-59
2023/03/31 06:20:42;;;;;;;1999.90;999.90;;;;;;;9.36;100.00;92800.72;5085513;28;20184;-58
2023/03/31 06:23:08;;;;;;;1999.90;999.90;;;;;;;9.28;100.00;92786.66;5085657;28;20319;-58
2023/03/31 06:25:37;;;;;;;1999.90;999.90;;;;;;;9.13;100.00;92788.50;5085252;28;20188;-57
2023/03/31 06:28:02;;;;;;;1999.90;999.90;;;;;;;9.10;100.00;92791.38;5085365;28;20172;-57
2023/03/31 06:30:28;;;;;;;1999.90;999.90;;;;;;;9.13;100.00;92790.47;5085130;28;20217;-58
2023/03/31 06:32:53;;;;;;;1999.90;999.90;;;;;;;9.13;100.00;92790.47;5085182;28;20191;-57
2023/03/31 06:35:18;;;;;;;1999.90;999.90;;;;;;;9.20;100.00;92785.47;5085316;28;20188;-58
2023/03/31 06:37:44;;;;;;;1999.90;999.90;;;;;;;9.27;100.00;92787.09;5085077;28;20200;-57
2023/03/31 06:40:10;;;;;;;1999.90;999.90;;;;;;;9.30;100.00;92789.69;5085090;28;20166;-59
2023/03/31 06:42:35;;;;;;;1999.90;999.90;;;;;;;9.41;100.00;92795.41;5085208;28;20169;-55
2023/03/31 06:45:00;;;;;;;1999.90;999.90;;;;;;;9.52;100.00;92801.09;5084822;28;20165;-58
2023/03/31 06:47:26;;;;;;;1999.90;999.90;;;;;;;9.66;100.00;92786.06;5085261;28;20181;-57
2023/03/31 06:49:51;;;;;;;1999.90;999.90;;;;;;;10.22;100.00;92777.13;5085297;28;20188;-57
2023/03/31 06:52:16;;;;;;;1999.90;999.90;;;;;;;10.58;100.00;92788.56;5084873;28;20172;-59
2023/03/31 06:54:42;;;;;;;1999.90;999.90;;;;;;;10.55;100.00;92821.47;5084682;28;20196;-58
2023/03/31 06:57:07;;;;;;;1999.90;999.90;;;;;;;10.44;100.00;92890.22;5084731;28;20241;-57
2023/03/31 06:59:32;;;;;;;1999.90;999.90;;;;;;;10.25;100.00;92948.03;5084620;28;20176;-57
2023/03/31 07:01:58;;;;;;;1999.90;999.90;;;;;;;10.07;100.00;92971.44;5084688;28;20179;-57
2023/03/31 07:04:23;;;;;;;1999.90;999.90;;;;;;;10.06;100.00;92994.44;5084693;28;20180;-58
2023/03/31 07:06:48;;;;;;;1999.90;999.90;;;;;;;9.89;100.00;92982.38;5084632;28;20171;-57
2023/03/31 07:09:14;;;;;;;1999.90;999.90;;;;;;;9.81;100.00;92992.03;5085291;28;20250;-57
2023/03/31 07:11:39;;;;;;;1999.90;999.90;;;;;;;9.84;100.00;93015.66;5085060;28;20180;-57
2023/03/31 07:14:05;;;;;;;1999.90;999.90;;;;;;;9.88;100.00;93057.16;5084893;28;20242;-57
2023/03/31 07:16:30;;;;;;;1999.90;999.90;;;;;;;9.88;100.00;93072.78;5084341;28;20170;-59
2023/03/31 07:18:58;;;;;;;1999.90;999.90;;;;;;;9.85;100.00;93063.53;5084880;28;20194;-57
2023/03/31 07:21:24;;;;;;;1999.90;999.90;;;;;;;9.64;100.00;93072.63;5084837;28;20175;-57
2023/03/31 07:23:49;;;;;;;1999.90;999.90;;;;;;;9.67;100.00;93096.25;5084782;28;20179;-56
2023/03/31 07:26:15;;;;;;;1999.90;999.90;;;;;;;9.67;100.00;93079.88;5084384;28;20173;-54
2023/03/31 07:28:40;;;;;;;1999.90;999.90;;;;;;;9.50;100.00;93096.97;5083636;28;20170;-53
2023/03/31 07:31:13;;;;;;;1999.90;999.90;;;;;;;9.55;100.00;93094.41;5084039;28;20177;-55
2023/03/31 07:33:39;;;;;;;1999.90;999.90;;;;;;;9.63;100.00;93084.75;5083792;28;20246;-56
2023/03/31 07:36:05;;;;;;;1999.90;999.90;;;;;;;9.67;100.00;93090.78;5083626;28;20174;-54
2023/03/31 07:38:31;;;;;;;1999.90;999.90;;;;;;;9.69;100.00;93082.91;5083817;28;20215;-56
2023/03/31 07:40:56;;;;;;;1999.90;999.90;;;;;;;9.64;100.00;93080.78;5084523;28;20181;-53
2023/03/31 07:43:22;;;;;;;1999.90;999.90;;;;;;;9.65;100.00;93035.97;5083463;28;20173;-56
2023/03/31 07:45:47;;;;;;;1999.90;999.90;;;;;;;9.58;100.00;93022.66;5083640;28;20176;-56
2023/03/31 07:48:12;;;;;;;1999.90;999.90;;;;;;;9.64;100.00;93012.66;5083569;28;20181;-56
2023/03/31 07:50:38;;;;;;;1999.90;999.90;;;;;;;9.67;100.00;93009.03;5083621;28;20184;-56
2023/03/31 07:53:04;;;;;;;1999.90;999.90;;;;;;;9.65;100.00;93038.69;5083534;28;20196;-56
2023/03/31 07:55:30;;;;;;;1999.90;999.90;;;;;;;9.66;100.00;93086.53;5084208;28;20189;-57
2023/03/31 07:57:55;;;;;;;1999.90;999.90;;;;;;;9.67;100.00;93088.06;5083705;28;20254;-57
2023/03/31 08:00:21;;;;;;;1999.90;999.90;;;;;;;9.69;100.00;93069.28;5084181;28;20277;-57
2023/03/31 08:02:46;;;;;;;1999.90;999.90;;;;;;;9.55;100.00;93061.69;5083719;28;20203;-57
2023/03/31 08:05:14;;;;;;;1999.90;999.90;;;;;;;9.60;100.00;93063.84;5083636;28;20166;-57
2023/03/31 08:07:42;;;;;;;1999.90;999.90;;;;;;;9.69;100.00;93022.22;5084202;28;20170;-57
2023/03/31 08:10:11;;;;;;;1999.90;999.90;;;;;;;9.75;100.00;93015.69;5083729;28;20171;-57
2023/03/31 08:12:37;;;;;;;1999.90;999.90;;;;;;;9.81;100.00;92992.03;5083976;28;20174;-56
2023/03/31 08:15:03;;;;;;;1999.90;999.90;;;;;;;9.88;100.00;93005.38;5083684;28;20260;-56
2023/03/31 08:17:28;;;;;;;1999.90;999.90;;;;;;;9.80;100.00;93012.34;5083334;28;20209;-57
2023/03/31 08:19:53;;;;;;;1999.90;999.90;;;;;;;9.78;100.00;93016.75;5083711;28;20174;-56
2023/03/31 08:22:19;;;;;;;1999.90;999.90;;;;;;;9.69;100.00;92992.97;5083770;28;20167;-56
2023/03/31 08:24:45;;;;;;;1999.90;999.90;;;;;;;9.67;100.00;93002.81;5083657;28;20170;-55
2023/03/31 08:27:11;;;;;;;1999.90;999.90;;;;;;;9.61;100.00;93016.31;5083584;28;20196;-56
2023/03/31 08:29:36;;;;;;;1999.90;999.90;;;;;;;9.74;100.00;93003.28;5083139;28;20222;-57
2023/03/31 08:32:02;;;;;;;1999.90;999.90;;;;;;;9.74;100.00;93000.56;5083343;28;20181;-57
2023/03/31 08:34:27;;;;;;;1999.90;999.90;;;;;;;9.77;100.00;92996.91;5083468;28;20229;-56
2023/03/31 08:36:52;;;;;;;1999.90;999.90;;;;;;;9.87;100.00;92995.69;5083450;28;20237;-57
2023/03/31 08:39:18;;;;;;;1999.90;999.90;;;;;;;9.97;100.00;92988.25;5086572;28;20169;-57
2023/03/31 08:42:05;;;;;;;1999.90;999.90;;;;;;;9.84;100.00;92993.13;5087485;28;20198;-57
2023/03/31 08:44:39;;;;;;;1999.90;999.90;;;;;;;9.79;100.00;93015.53;5087783;28;20299;-56
2023/03/31 08:47:14;;;;;;;1999.90;999.90;;;;;;;9.83;100.00;93019.63;5087873;28;20217;-56
2023/03/31 08:49:44;;;;;;;1999.90;999.90;;;;;;;9.76;100.00;93027.34;5087798;28;20171;-56
2023/03/31 08:52:33;;;;;;;1999.90;999.90;;;;;;;9.79;100.00;93057.16;5087679;28;20172;-56
2023/03/31 08:55:03;;;;;;;1999.90;999.90;;;;;;;9.84;100.00;93067.47;5087323;28;20197;-57
2023/03/31 08:57:39;;;;;;;1999.90;999.90;;;;;;;9.80;100.00;93055.22;5086956;28;20189;-57
2023/03/31 09:00:09;;;;;;;1999.90;999.90;;;;;;;9.91;100.00;93078.06;5087338;28;20365;-57
2023/03/31 09:03:04;;;;;;;1999.90;999.90;;;;;;;10.04;100.00;93108.66;5083104;28;20192;-56
2023/03/31 09:06:02;;;;;;;1999.90;999.90;;;;;;;10.05;100.00;93054.88;5087179;28;20169;-56
2023/03/31 09:08:34;;;;;;;1999.90;999.90;;;;;;;10.33;100.00;93031.03;5063845;28;20219;-56
2023/03/31 09:11:10;;;;;;;1999.90;999.90;;;;;;;10.49;100.00;93027.97;5086867;28;20177;-57
2023/03/31 09:13:44;;;;;;;1999.90;999.90;;;;;;;10.55;100.00;93080.69;5086732;28;20162;-57
2023/03/31 09:16:28;;;;;;;1999.90;999.90;;;;;;;10.62;100.00;93108.44;5087247;28;20161;-57
2023/03/31 09:18:59;;;;;;;1999.90;999.90;;;;;;;10.58;100.00;93118.75;5086488;28;20197;-57
2023/03/31 09:21:31;;;;;;;1999.90;999.90;;;;;;;10.64;100.00;93148.91;5087050;28;20174;-56
2023/03/31 09:24:10;;;;;;;1999.90;999.90;;;;;;;10.93;100.00;93198.31;5086702;28;20487;-56
2023/03/31 09:26:51;;;;;;;1999.90;999.90;;;;;;;11.44;100.00;93209.97;5086777;28;20178;-57
2023/03/31 09:29:33;;;;;;;1999.90;999.90;;;;;;;12.03;100.00;93283.72;5086710;28;20237;-55
2023/03/31 09:32:15;;;;;;;1999.90;999.90;;;;;;;13.31;100.00;93422.13;5086348;28;20258;-57
2023/03/31 09:34:40;;;;;;;1999.90;999.90;;;;;;;14.70;100.00;93638.41;5086771;28;20197;-55
2023/03/31 09:37:07;;;;;;;1999.90;999.90;;;;;;;16.26;100.00;93842.22;5086875;28;20236;-57
2023/03/31 09:39:32;;;;;;;1999.90;999.90;;;;;;;16.02;100.00;94026.09;5086662;28;20173;-58
2023/03/31 09:41:59;;;;;;;1999.90;999.90;;;;;;;16.02;100.00;94081.16;5086178;28;20173;-58
2023/03/31 09:44:31;;;;;;;1999.90;999.90;;;;;;;15.66;100.00;94108.91;5086083;28;20173;-58
2023/03/31 09:46:59;;;;;;;1999.90;999.90;;;;;;;15.65;100.00;94112.13;5086531;28;20181;-57
2023/03/31 09:49:31;;;;;;;1999.90;999.90;;;;;;;16.42;100.00;94107.53;5086534;28;20173;-58
2023/03/31 09:52:11;;;;;;;1999.90;999.90;;;;;;;17.19;100.00;94115.19;5086819;28;20161;-58
2023/03/31 09:54:46;;;;;;;1999.90;999.90;;;;;;;16.57;100.00;94144.16;5086015;28;20272;-58
2023/03/31 09:57:15;;;;;;;1999.90;999.90;;;;;;;15.64;100.00;94144.41;5086365;28;20188;-58
2023/03/31 09:59:42;;;;;;;1999.90;999.90;;;;;;;15.03;100.00;94144.13;5086159;28;20173;-58
2023/03/31 10:02:48;;;;;;;1999.90;999.90;;;;;;;14.94;100.00;94131.16;5085868;28;20232;-58
2023/03/31 10:05:47;;;;;;;1999.90;999.90;;;;;;;15.14;100.00;94128.69;5028694;28;20237;-57
2023/03/31 10:08:23;;;;;;;1999.90;999.90;;;;;;;15.36;100.00;94129.25;5028539;28;20186;-58
2023/03/31 10:10:55;;;;;;;1999.90;999.90;;;;;;;15.12;100.00;94131.13;5071925;28;20181;-58
2023/03/31 10:13:24;;;;;;;1999.90;999.90;;;;;;;14.93;100.00;94129.66;5085795;28;20169;-58
2023/03/31 10:16:00;;;;;;;1999.90;999.90;;;;;;;15.11;100.00;94117.81;5086174;28;20169;-58
2023/03/31 10:18:33;;;;;;;1999.90;999.90;;;;;;;15.29;100.00;94110.28;5085656;28;20196;-58
2023/03/31 10:20:59;;;;;;;1999.90;999.90;;;;;;;15.96;100.00;94104.31;5086039;28;20225;-58
2023/03/31 10:23:31;;;;;;;1999.90;999.90;;;;;;;15.80;100.00;94108.22;5085415;28;20207;-59
2023/03/31 10:25:58;;;;;;;1999.90;999.90;;;;;;;15.77;100.00;94114.66;5085964;28;20165;-58
2023/03/31 10:28:24;;;;;;;1999.90;999.90;;;;;;;15.27;100.00;94109.97;5085330;28;20161;-60
2023/03/31 10:30:56;;;;;;;1999.90;999.90;;;;;;;15.18;100.00;94106.50;5085151;28;20216;-63
2023/03/31 10:33:25;;;;;;;1999.90;999.90;;;;;;;15.14;100.00;94090.19;5084943;28;20173;-62
2023/03/31 10:35:56;;;;;;;1999.90;999.90;;;;;;;16.28;100.00;94075.91;5085190;28;20184;-60
2023/03/31 10:38:33;;;;;;;1999.90;999.90;;;;;;;17.72;100.00;94084.66;5085019;28;20200;-63
2023/03/31 10:41:00;;;;;;;1999.90;999.90;;;;;;;17.92;100.00;94104.03;5085465;28;20169;-61
2023/03/31 10:43:50;;;;;;;1999.90;999.90;;;;;;;18.59;100.00;94095.34;5084725;28;20240;-56
2023/03/31 10:46:15;;;;;;;1999.90;999.90;;;;;;;18.58;100.00;94102.13;5077240;28;20189;-59
2023/03/31 10:48:43;;;;;;;1999.90;999.90;;;;;;;18.09;100.00;94113.31;5084901;28;20180;-54
2023/03/31 10:51:19;;;;;;;1999.90;999.90;;;;;;;18.00;100.00;94102.38;5085145;28;20199;-59
2023/03/31 10:53:48;;;;;;;1999.90;999.90;;;;;;;17.53;100.00;94097.19;5084757;28;20197;-60
2023/03/31 10:56:45;;;;;;;1999.90;999.90;;;;;;;16.86;100.00;94080.78;5084823;28;20181;-60
2023/03/31 10:59:13;;;;;;;1999.90;999.90;;;;;;;16.97;100.00;94086.47;5082534;28;20213;-62
2023/03/31 11:01:57;;;;;;;1999.90;999.90;;;;;;;16.73;100.00;94066.50;5084160;28;20177;-60
2023/03/31 11:04:43;;;;;;;1999.90;999.90;;;;;;;16.15;100.00;94062.41;5085169;28;20177;-60
2023/03/31 11:07:18;;;;;;;1999.90;999.90;;;;;;;15.88;100.00;94065.34;5085233;28;20201;-59
2023/03/31 11:10:17;;;;;;;1999.90;999.90;;;;;;;15.55;100.00;94059.13;5084447;28;20177;-60